sensor_id;sensor_type;location;lat;lon;timestamp;pressure;altitude;pressure_sealevel;temperature;humidity
65666;BME280;52365;47.464;18.976;2022-08-21T00:00:13;99198.72;;;21.65;75.38
65666;BME280;52365;47.464;18.976;2022-08-21T00:00:50;99204.41;;;21.67;75.70
65666;BME280;52365;47.464;18.976;2022-08-21T00:01:27;99206.28;;;21.87;75.24
65666;BME280;52365;47.464;18.976;2022-08-21T00:02:16;99204.44;;;21.82;75.16
65666;BME280;52365;47.464;18.976;2022-08-21T00:02:58;99206.75;;;22.22;73.72
65666;BME280;52365;47.464;18.976;2022-08-21T00:03:35;99209.28;;;22.13;73.31
65666;BME280;52365;47.464;18.976;2022-08-21T00:04:11;99195.38;;;22.33;73.24
65666;BME280;52365;47.464;18.976;2022-08-21T00:04:48;99204.91;;;22.40;72.79
65666;BME280;52365;47.464;18.976;2022-08-21T00:05:25;99208.19;;;22.38;72.08
65666;BME280;52365;47.464;18.976;2022-08-21T00:06:01;99210.69;;;21.91;73.09
65666;BME280;52365;47.464;18.976;2022-08-21T00:06:38;99204.53;;;21.18;75.86
65666;BME280;52365;47.464;18.976;2022-08-21T00:07:14;99207.72;;;21.73;75.26
65666;BME280;52365;47.464;18.976;2022-08-21T00:07:51;99205.09;;;21.52;75.09
65666;BME280;52365;47.464;18.976;2022-08-21T00:08:28;99209.84;;;21.23;76.06
65666;BME280;52365;47.464;18.976;2022-08-21T00:09:06;99204.50;;;21.10;77.08
65666;BME280;52365;47.464;18.976;2022-08-21T00:09:42;99199.91;;;21.05;77.62
65666;BME280;52365;47.464;18.976;2022-08-21T00:10:20;99208.37;;;20.86;78.45
65666;BME280;52365;47.464;18.976;2022-08-21T00:10:56;99206.53;;;21.17;77.91
65666;BME280;52365;47.464;18.976;2022-08-21T00:11:34;99208.72;;;21.47;76.65
65666;BME280;52365;47.464;18.976;2022-08-21T00:12:10;99212.81;;;21.77;75.37
65666;BME280;52365;47.464;18.976;2022-08-21T00:12:47;99207.97;;;22.06;74.02
65666;BME280;52365;47.464;18.976;2022-08-21T00:13:23;99209.19;;;21.74;74.01
65666;BME280;52365;47.464;18.976;2022-08-21T00:13:59;99199.75;;;21.10;76.23
65666;BME280;52365;47.464;18.976;2022-08-21T00:14:36;99204.94;;;20.93;77.66
65666;BME280;52365;47.464;18.976;2022-08-21T00:15:15;99201.56;;;21.08;77.94
65666;BME280;52365;47.464;18.976;2022-08-21T00:15:54;99205.25;;;21.18;77.43
65666;BME280;52365;47.464;18.976;2022-08-21T00:16:30;99198.41;;;21.32;77.08
65666;BME280;52365;47.464;18.976;2022-08-21T00:17:07;99200.22;;;21.74;75.49
65666;BME280;52365;47.464;18.976;2022-08-21T00:17:43;99205.16;;;21.75;74.75
65666;BME280;52365;47.464;18.976;2022-08-21T00:18:19;99198.91;;;21.67;74.92
65666;BME280;52365;47.464;18.976;2022-08-21T00:18:55;99194.56;;;21.95;74.38
65666;BME280;52365;47.464;18.976;2022-08-21T00:19:32;99196.66;;;22.25;72.88
65666;BME280;52365;47.464;18.976;2022-08-21T00:20:10;99195.38;;;22.33;72.21
65666;BME280;52365;47.464;18.976;2022-08-21T00:20:47;99195.88;;;22.01;72.60
65666;BME280;52365;47.464;18.976;2022-08-21T00:21:23;99194.75;;;21.89;73.45
65666;BME280;52365;47.464;18.976;2022-08-21T00:22:00;99191.84;;;21.87;74.00
65666;BME280;52365;47.464;18.976;2022-08-21T00:22:37;99201.72;;;21.98;73.59
65666;BME280;52365;47.464;18.976;2022-08-21T00:23:13;99194.72;;;21.66;74.15
65666;BME280;52365;47.464;18.976;2022-08-21T00:23:50;99194.28;;;21.47;75.29
65666;BME280;52365;47.464;18.976;2022-08-21T00:24:26;99187.03;;;21.28;76.22
65666;BME280;52365;47.464;18.976;2022-08-21T00:25:04;99196.25;;;21.39;76.31
65666;BME280;52365;47.464;18.976;2022-08-21T00:25:43;99186.66;;;21.24;76.69
65666;BME280;52365;47.464;18.976;2022-08-21T00:26:19;99194.38;;;20.97;77.55
65666;BME280;52365;47.464;18.976;2022-08-21T00:26:56;99196.88;;;21.24;77.44
65666;BME280;52365;47.464;18.976;2022-08-21T00:27:32;99188.75;;;21.03;77.00
65666;BME280;52365;47.464;18.976;2022-08-21T00:28:10;99204.53;;;21.18;77.26
65666;BME280;52365;47.464;18.976;2022-08-21T00:28:46;99194.72;;;21.66;75.51
65666;BME280;52365;47.464;18.976;2022-08-21T00:29:25;99195.31;;;22.03;73.87
65666;BME280;52365;47.464;18.976;2022-08-21T00:30:02;99197.88;;;21.93;73.25
65666;BME280;52365;47.464;18.976;2022-08-21T00:30:39;99203.69;;;21.74;74.54
65666;BME280;52365;47.464;18.976;2022-08-21T00:31:17;99210.47;;;21.73;74.71
65666;BME280;52365;47.464;18.976;2022-08-21T00:31:53;99200.37;;;21.68;75.07
65666;BME280;52365;47.464;18.976;2022-08-21T00:32:29;99204.66;;;22.00;74.28
65666;BME280;52365;47.464;18.976;2022-08-21T00:33:06;99208.44;;;21.81;73.84
65666;BME280;52365;47.464;18.976;2022-08-21T00:33:42;99210.50;;;21.88;74.00
65666;BME280;52365;47.464;18.976;2022-08-21T00:34:18;99202.91;;;21.58;74.03
65666;BME280;52365;47.464;18.976;2022-08-21T00:34:55;99199.41;;;21.14;76.02
65666;BME280;52365;47.464;18.976;2022-08-21T00:35:34;99195.72;;;21.40;76.02
65666;BME280;52365;47.464;18.976;2022-08-21T00:36:12;99197.25;;;21.56;75.17
65666;BME280;52365;47.464;18.976;2022-08-21T00:36:49;99205.25;;;21.47;75.78
65666;BME280;52365;47.464;18.976;2022-08-21T00:37:25;99198.53;;;21.63;75.44
65666;BME280;52365;47.464;18.976;2022-08-21T00:38:02;99203.00;;;21.89;74.60
65666;BME280;52365;47.464;18.976;2022-08-21T00:38:39;99210.31;;;21.94;74.23
65666;BME280;52365;47.464;18.976;2022-08-21T00:39:15;99203.00;;;21.89;73.93
65666;BME280;52365;47.464;18.976;2022-08-21T00:39:51;99205.56;;;21.87;74.02
65666;BME280;52365;47.464;18.976;2022-08-21T00:40:45;99205.19;;;21.83;73.58
65666;BME280;52365;47.464;18.976;2022-08-21T00:41:22;99202.13;;;21.43;74.88
65666;BME280;52365;47.464;18.976;2022-08-21T00:41:59;99200.72;;;21.57;74.95
65666;BME280;52365;47.464;18.976;2022-08-21T00:42:35;99204.75;;;21.56;75.27
65666;BME280;52365;47.464;18.976;2022-08-21T00:43:14;99202.59;;;21.77;74.56
65666;BME280;52365;47.464;18.976;2022-08-21T00:43:50;99202.75;;;21.72;74.47
65666;BME280;52365;47.464;18.976;2022-08-21T00:44:28;99204.41;;;21.67;74.90
65666;BME280;52365;47.464;18.976;2022-08-21T00:45:05;99215.28;;;22.11;73.15
65666;BME280;52365;47.464;18.976;2022-08-21T00:45:42;99199.41;;;22.17;72.15
65666;BME280;52365;47.464;18.976;2022-08-21T00:46:18;99194.59;;;21.87;72.33
65666;BME280;52365;47.464;18.976;2022-08-21T00:46:54;99198.91;;;21.67;73.79
65666;BME280;52365;47.464;18.976;2022-08-21T00:47:30;99202.72;;;21.64;74.33
65666;BME280;52365;47.464;18.976;2022-08-21T00:48:06;99200.22;;;21.30;75.56
65666;BME280;52365;47.464;18.976;2022-08-21T00:48:42;99197.88;;;21.05;76.46
65666;BME280;52365;47.464;18.976;2022-08-21T00:49:19;99200.00;;;20.92;77.08
65666;BME280;52365;47.464;18.976;2022-08-21T00:49:55;99195.19;;;20.84;77.60
65666;BME280;52365;47.464;18.976;2022-08-21T00:50:35;99189.91;;;20.58;78.59
65666;BME280;52365;47.464;18.976;2022-08-21T00:51:22;99201.47;;;20.64;79.39
65666;BME280;52365;47.464;18.976;2022-08-21T00:52:02;99196.09;;;21.08;78.21
65666;BME280;52365;47.464;18.976;2022-08-21T00:52:39;99197.53;;;21.09;77.44
65666;BME280;52365;47.464;18.976;2022-08-21T00:53:16;99197.44;;;21.22;76.87
65666;BME280;52365;47.464;18.976;2022-08-21T00:53:57;99183.78;;;21.30;76.58
65666;BME280;52365;47.464;18.976;2022-08-21T00:54:36;99186.03;;;21.39;75.87
65666;BME280;52365;47.464;18.976;2022-08-21T00:55:13;99188.81;;;21.54;75.66
65666;BME280;52365;47.464;18.976;2022-08-21T00:55:50;99188.03;;;21.46;75.17
65666;BME280;52365;47.464;18.976;2022-08-21T00:56:28;99199.19;;;21.41;75.78
65666;BME280;52365;47.464;18.976;2022-08-21T00:57:12;99195.06;;;21.26;76.58
65666;BME280;52365;47.464;18.976;2022-08-21T00:57:54;99191.41;;;21.24;76.82
65666;BME280;52365;47.464;18.976;2022-08-21T00:58:31;99183.63;;;20.99;77.32
65666;BME280;52365;47.464;18.976;2022-08-21T00:59:08;99187.75;;;21.21;76.88
65666;BME280;52365;47.464;18.976;2022-08-21T00:59:47;99189.12;;;21.35;76.01
65666;BME280;52365;47.464;18.976;2022-08-21T01:00:30;99193.44;;;21.31;76.06
65666;BME280;52365;47.464;18.976;2022-08-21T01:01:08;99192.50;;;21.28;76.41
65666;BME280;52365;47.464;18.976;2022-08-21T01:01:44;99190.78;;;21.39;75.92
65666;BME280;52365;47.464;18.976;2022-08-21T01:02:21;99193.19;;;21.50;75.59
65666;BME280;52365;47.464;18.976;2022-08-21T01:02:58;99189.00;;;21.56;74.85
65666;BME280;52365;47.464;18.976;2022-08-21T01:03:36;99179.56;;;20.93;76.75
65666;BME280;52365;47.464;18.976;2022-08-21T01:04:12;99191.69;;;20.76;77.75
65666;BME280;52365;47.464;18.976;2022-08-21T01:04:49;99193.44;;;20.66;78.81
65666;BME280;52365;47.464;18.976;2022-08-21T01:05:25;99187.78;;;20.64;79.30
65666;BME280;52365;47.464;18.976;2022-08-21T01:06:03;99192.66;;;20.86;78.99
65666;BME280;52365;47.464;18.976;2022-08-21T01:06:40;99195.38;;;21.15;77.47
65666;BME280;52365;47.464;18.976;2022-08-21T01:07:16;99198.78;;;21.00;77.46
65666;BME280;52365;47.464;18.976;2022-08-21T01:07:54;99195.25;;;21.21;77.01
65666;BME280;52365;47.464;18.976;2022-08-21T01:08:33;99202.25;;;21.37;76.60
65666;BME280;52365;47.464;18.976;2022-08-21T01:09:11;99201.41;;;21.50;75.71
65666;BME280;52365;47.464;18.976;2022-08-21T01:09:47;99193.06;;;21.27;75.82
65666;BME280;52365;47.464;18.976;2022-08-21T01:10:24;99198.38;;;21.25;76.15
65666;BME280;52365;47.464;18.976;2022-08-21T01:11:01;99195.06;;;21.26;76.60
65666;BME280;52365;47.464;18.976;2022-08-21T01:11:39;99190.88;;;21.25;75.78
65666;BME280;52365;47.464;18.976;2022-08-21T01:12:15;99195.06;;;21.26;75.91
65666;BME280;52365;47.464;18.976;2022-08-21T01:12:55;99195.69;;;20.75;77.31
65666;BME280;52365;47.464;18.976;2022-08-21T01:13:36;99201.88;;;20.68;78.11
65666;BME280;52365;47.464;18.976;2022-08-21T01:14:12;99203.13;;;20.67;78.80
65666;BME280;52365;47.464;18.976;2022-08-21T01:14:50;99205.94;;;21.11;78.26
65666;BME280;52365;47.464;18.976;2022-08-21T01:15:33;99197.88;;;21.34;76.59
65666;BME280;52365;47.464;18.976;2022-08-21T01:16:10;99195.25;;;21.28;75.75
65666;BME280;52365;47.464;18.976;2022-08-21T01:16:50;99194.59;;;21.35;75.96
65666;BME280;52365;47.464;18.976;2022-08-21T01:17:27;99190.50;;;21.65;74.87
65666;BME280;52365;47.464;18.976;2022-08-21T01:18:07;99192.28;;;21.55;74.93
65666;BME280;52365;47.464;18.976;2022-08-21T01:18:44;99203.25;;;21.47;75.43
65666;BME280;52365;47.464;18.976;2022-08-21T01:19:22;99195.41;;;21.59;75.32
65666;BME280;52365;47.464;18.976;2022-08-21T01:20:00;99189.94;;;21.23;76.06
65666;BME280;52365;47.464;18.976;2022-08-21T01:20:39;99188.91;;;21.33;75.86
65666;BME280;52365;47.464;18.976;2022-08-21T01:21:21;99207.66;;;20.85;77.21
65666;BME280;52365;47.464;18.976;2022-08-21T01:21:58;99190.91;;;20.97;77.85
65666;BME280;52365;47.464;18.976;2022-08-21T01:22:36;99185.81;;;21.01;77.67
65666;BME280;52365;47.464;18.976;2022-08-21T01:23:12;99189.88;;;21.07;77.40
65666;BME280;52365;47.464;18.976;2022-08-21T01:23:51;99195.31;;;21.00;77.10
65666;BME280;52365;47.464;18.976;2022-08-21T01:24:28;99192.97;;;20.54;78.72
65666;BME280;52365;47.464;18.976;2022-08-21T01:25:06;99192.53;;;20.64;79.32
65666;BME280;52365;47.464;18.976;2022-08-21T01:25:42;99193.03;;;20.41;79.39
65666;BME280;52365;47.464;18.976;2022-08-21T01:26:22;99194.63;;;20.36;80.43
65666;BME280;52365;47.464;18.976;2022-08-21T01:26:59;99183.44;;;20.48;80.26
65666;BME280;52365;47.464;18.976;2022-08-21T01:27:36;99187.97;;;20.95;78.79
65666;BME280;52365;47.464;18.976;2022-08-21T01:28:14;99185.91;;;21.24;77.32
65666;BME280;52365;47.464;18.976;2022-08-21T01:29:03;99184.63;;;21.17;77.28
65666;BME280;52365;47.464;18.976;2022-08-21T01:29:57;99184.81;;;21.19;77.01
65666;BME280;52365;47.464;18.976;2022-08-21T01:30:36;99184.81;;;21.19;76.91
65666;BME280;52365;47.464;18.976;2022-08-21T01:31:14;99180.88;;;20.99;77.82
65666;BME280;52365;47.464;18.976;2022-08-21T01:31:51;99182.50;;;20.95;77.84
65666;BME280;52365;47.464;18.976;2022-08-21T01:32:27;99181.22;;;20.96;78.12
65666;BME280;52365;47.464;18.976;2022-08-21T01:33:03;99192.19;;;20.96;78.43
65666;BME280;52365;47.464;18.976;2022-08-21T01:33:39;99190.22;;;21.04;78.54
65666;BME280;52365;47.464;18.976;2022-08-21T01:34:15;99184.06;;;21.19;77.62
65666;BME280;52365;47.464;18.976;2022-08-21T01:34:52;99184.75;;;21.11;77.47
65666;BME280;52365;47.464;18.976;2022-08-21T01:35:29;99184.75;;;21.11;77.67
65666;BME280;52365;47.464;18.976;2022-08-21T01:36:05;99180.78;;;21.20;77.86
65666;BME280;52365;47.464;18.976;2022-08-21T01:36:43;99181.16;;;21.68;75.68
65666;BME280;52365;47.464;18.976;2022-08-21T01:37:21;99182.81;;;21.56;74.67
65666;BME280;52365;47.464;18.976;2022-08-21T01:37:57;99183.13;;;21.45;75.25
65666;BME280;52365;47.464;18.976;2022-08-21T01:38:33;99182.84;;;21.27;75.99
65666;BME280;52365;47.464;18.976;2022-08-21T01:39:09;99192.41;;;21.42;76.11
65666;BME280;52365;47.464;18.976;2022-08-21T01:39:45;99196.03;;;21.88;74.72
65666;BME280;52365;47.464;18.976;2022-08-21T01:40:22;99181.78;;;21.90;73.75
65666;BME280;52365;47.464;18.976;2022-08-21T01:40:58;99187.22;;;21.74;73.29
65666;BME280;52365;47.464;18.976;2022-08-21T01:41:34;99186.97;;;21.49;74.77
65666;BME280;52365;47.464;18.976;2022-08-21T01:42:10;99187.44;;;21.32;75.28
65666;BME280;52365;47.464;18.976;2022-08-21T01:42:47;99187.88;;;21.44;75.67
65666;BME280;52365;47.464;18.976;2022-08-21T01:43:24;99181.81;;;21.38;75.56
65666;BME280;52365;47.464;18.976;2022-08-21T01:44:00;99177.25;;;21.41;75.73
65666;BME280;52365;47.464;18.976;2022-08-21T01:44:36;99184.66;;;21.69;74.33
65666;BME280;52365;47.464;18.976;2022-08-21T01:45:12;99174.56;;;21.56;74.65
65666;BME280;52365;47.464;18.976;2022-08-21T01:45:49;99185.31;;;21.46;75.32
65666;BME280;52365;47.464;18.976;2022-08-21T01:46:25;99176.41;;;21.61;74.86
65666;BME280;52365;47.464;18.976;2022-08-21T01:47:05;99175.75;;;21.99;74.12
65666;BME280;52365;47.464;18.976;2022-08-21T01:47:43;99174.12;;;21.96;73.68
65666;BME280;52365;47.464;18.976;2022-08-21T01:48:19;99184.25;;;21.57;73.99
65666;BME280;52365;47.464;18.976;2022-08-21T01:48:55;99179.25;;;21.04;76.16
65666;BME280;52365;47.464;18.976;2022-08-21T01:49:32;99169.91;;;20.99;77.22
65666;BME280;52365;47.464;18.976;2022-08-21T01:50:10;99172.31;;;21.03;77.87
65666;BME280;52365;47.464;18.976;2022-08-21T01:50:47;99176.53;;;21.04;78.09
65666;BME280;52365;47.464;18.976;2022-08-21T01:51:23;99182.78;;;21.12;77.92
65666;BME280;52365;47.464;18.976;2022-08-21T01:52:00;99175.63;;;21.45;76.12
65666;BME280;52365;47.464;18.976;2022-08-21T01:52:36;99174.38;;;21.54;75.25
65666;BME280;52365;47.464;18.976;2022-08-21T01:53:12;99181.75;;;21.74;75.09
65666;BME280;52365;47.464;18.976;2022-08-21T01:53:51;99179.19;;;21.76;74.13
65666;BME280;52365;47.464;18.976;2022-08-21T01:54:27;99173.69;;;21.76;74.79
65666;BME280;52365;47.464;18.976;2022-08-21T01:55:05;99180.19;;;21.43;74.54
65666;BME280;52365;47.464;18.976;2022-08-21T01:55:43;99180.66;;;21.26;76.17
65666;BME280;52365;47.464;18.976;2022-08-21T01:56:19;99173.91;;;21.78;74.94
65666;BME280;52365;47.464;18.976;2022-08-21T01:56:56;99184.72;;;21.92;73.53
65666;BME280;52365;47.464;18.976;2022-08-21T01:57:34;99168.19;;;21.61;73.95
65666;BME280;52365;47.464;18.976;2022-08-21T01:58:10;99169.28;;;21.66;73.95
65666;BME280;52365;47.464;18.976;2022-08-21T01:58:47;99177.97;;;21.41;75.08
65666;BME280;52365;47.464;18.976;2022-08-21T01:59:23;99171.22;;;21.34;75.78
65666;BME280;52365;47.464;18.976;2022-08-21T01:59:59;99173.69;;;21.76;74.79
65666;BME280;52365;47.464;18.976;2022-08-21T02:00:36;99180.72;;;22.00;73.46
65666;BME280;52365;47.464;18.976;2022-08-21T02:01:13;99175.22;;;22.08;72.63
65666;BME280;52365;47.464;18.976;2022-08-21T02:01:49;99181.62;;;22.10;72.54
65666;BME280;52365;47.464;18.976;2022-08-21T02:02:25;99180.69;;;22.08;72.45
65666;BME280;52365;47.464;18.976;2022-08-21T02:03:02;99174.84;;;21.37;74.41
65666;BME280;52365;47.464;18.976;2022-08-21T02:03:38;99171.22;;;21.34;75.36
65666;BME280;52365;47.464;18.976;2022-08-21T02:04:15;99183.16;;;21.16;76.13
65666;BME280;52365;47.464;18.976;2022-08-21T02:04:51;99181.59;;;20.71;77.57
65666;BME280;52365;47.464;18.976;2022-08-21T02:05:27;99184.69;;;20.47;78.41
65666;BME280;52365;47.464;18.976;2022-08-21T02:06:04;99172.28;;;20.46;79.56
65666;BME280;52365;47.464;18.976;2022-08-21T02:06:42;99181.59;;;20.71;79.04
65666;BME280;52365;47.464;18.976;2022-08-21T02:07:19;99184.50;;;20.66;79.17
65666;BME280;52365;47.464;18.976;2022-08-21T02:07:56;99187.22;;;20.66;79.10
65666;BME280;52365;47.464;18.976;2022-08-21T02:08:33;99183.66;;;20.78;78.78
65666;BME280;52365;47.464;18.976;2022-08-21T02:09:11;99182.50;;;20.95;78.17
65666;BME280;52365;47.464;18.976;2022-08-21T02:09:47;99177.69;;;21.24;76.94
65666;BME280;52365;47.464;18.976;2022-08-21T02:10:30;99180.88;;;21.35;76.42
65666;BME280;52365;47.464;18.976;2022-08-21T02:11:07;99183.03;;;21.29;75.38
65666;BME280;52365;47.464;18.976;2022-08-21T02:11:43;99180.00;;;21.04;77.04
65666;BME280;52365;47.464;18.976;2022-08-21T02:12:19;99179.28;;;21.11;76.36
65666;BME280;52365;47.464;18.976;2022-08-21T02:12:56;99174.91;;;21.08;76.53
65666;BME280;52365;47.464;18.976;2022-08-21T02:13:33;99179.78;;;21.02;76.85
65666;BME280;52365;47.464;18.976;2022-08-21T02:14:11;99185.31;;;21.10;76.96
65666;BME280;52365;47.464;18.976;2022-08-21T02:14:49;99180.28;;;20.93;77.34
65666;BME280;52365;47.464;18.976;2022-08-21T02:15:25;99185.41;;;20.97;77.63
65666;BME280;52365;47.464;18.976;2022-08-21T02:16:02;99182.72;;;21.41;76.13
65666;BME280;52365;47.464;18.976;2022-08-21T02:16:39;99179.16;;;21.61;74.33
65666;BME280;52365;47.464;18.976;2022-08-21T02:17:15;99175.78;;;21.40;74.76
65666;BME280;52365;47.464;18.976;2022-08-21T02:17:54;99182.38;;;21.44;75.32
65666;BME280;52365;47.464;18.976;2022-08-21T02:18:31;99182.31;;;21.80;73.81
65666;BME280;52365;47.464;18.976;2022-08-21T02:19:09;99175.50;;;21.66;73.36
65666;BME280;52365;47.464;18.976;2022-08-21T02:19:45;99182.00;;;21.40;74.50
65666;BME280;52365;47.464;18.976;2022-08-21T02:20:27;99180.16;;;21.35;75.57
65666;BME280;52365;47.464;18.976;2022-08-21T02:21:05;99179.44;;;21.42;75.45
65666;BME280;52365;47.464;18.976;2022-08-21T02:21:41;99178.19;;;21.51;75.12
65666;BME280;52365;47.464;18.976;2022-08-21T02:22:18;99175.50;;;21.66;74.51
65666;BME280;52365;47.464;18.976;2022-08-21T02:22:55;99176.72;;;21.50;74.74
65666;BME280;52365;47.464;18.976;2022-08-21T02:23:31;99184.34;;;21.36;75.33
65666;BME280;52365;47.464;18.976;2022-08-21T02:24:09;99187.44;;;21.32;75.84
65666;BME280;52365;47.464;18.976;2022-08-21T02:24:45;99177.63;;;21.45;74.93
65666;BME280;52365;47.464;18.976;2022-08-21T02:25:23;99185.00;;;21.21;75.63
65666;BME280;52365;47.464;18.976;2022-08-21T02:26:01;99185.13;;;21.08;76.29
65666;BME280;52365;47.464;18.976;2022-08-21T02:26:37;99183.91;;;20.88;77.10
65666;BME280;52365;47.464;18.976;2022-08-21T02:27:13;99190.59;;;21.08;77.08
65666;BME280;52365;47.464;18.976;2022-08-21T02:27:50;99182.91;;;21.06;76.81
65666;BME280;52365;47.464;18.976;2022-08-21T02:28:27;99186.84;;;21.26;76.34
65666;BME280;52365;47.464;18.976;2022-08-21T02:29:04;99187.44;;;21.32;75.83
65666;BME280;52365;47.464;18.976;2022-08-21T02:29:40;99194.53;;;21.28;75.99
65666;BME280;52365;47.464;18.976;2022-08-21T02:30:32;99191.22;;;21.22;76.23
65666;BME280;52365;47.464;18.976;2022-08-21T02:31:09;99196.09;;;21.08;76.62
65666;BME280;52365;47.464;18.976;2022-08-21T02:31:45;99188.94;;;21.05;76.73
65666;BME280;52365;47.464;18.976;2022-08-21T02:32:21;99195.50;;;21.02;77.08
65666;BME280;52365;47.464;18.976;2022-08-21T02:32:57;99189.31;;;21.09;76.96
65666;BME280;52365;47.464;18.976;2022-08-21T02:33:34;99192.84;;;21.17;76.93
65666;BME280;52365;47.464;18.976;2022-08-21T02:34:10;99189.25;;;21.30;76.29
65666;BME280;52365;47.464;18.976;2022-08-21T02:34:46;99188.09;;;21.54;75.38
65666;BME280;52365;47.464;18.976;2022-08-21T02:35:22;99192.34;;;21.70;74.50
65666;BME280;52365;47.464;18.976;2022-08-21T02:35:59;99181.94;;;21.69;74.11
65666;BME280;52365;47.464;18.976;2022-08-21T02:36:36;99194.47;;;21.49;74.60
65666;BME280;52365;47.464;18.976;2022-08-21T02:37:12;99189.75;;;21.57;74.68
65666;BME280;52365;47.464;18.976;2022-08-21T02:38:30;99186.53;;;21.89;73.81
65666;BME280;52365;47.464;18.976;2022-08-21T02:39:06;99188.38;;;21.86;73.49
65666;BME280;52365;47.464;18.976;2022-08-21T02:39:42;99187.25;;;21.90;72.79
65666;BME280;52365;47.464;18.976;2022-08-21T02:40:22;99179.03;;;21.97;73.05
65666;BME280;52365;47.464;18.976;2022-08-21T02:41:00;99184.19;;;22.01;72.32
65666;BME280;52365;47.464;18.976;2022-08-21T02:41:36;99180.50;;;21.91;72.50
65666;BME280;52365;47.464;18.976;2022-08-21T02:42:12;99179.06;;;22.05;72.35
65666;BME280;52365;47.464;18.976;2022-08-21T02:42:48;99184.16;;;21.93;71.80
65666;BME280;52365;47.464;18.976;2022-08-21T02:43:27;99177.28;;;21.48;73.36
65666;BME280;52365;47.464;18.976;2022-08-21T02:44:03;99173.59;;;21.38;74.29
65666;BME280;52365;47.464;18.976;2022-08-21T02:44:39;99177.59;;;21.37;74.52
65666;BME280;52365;47.464;18.976;2022-08-21T02:45:16;99173.31;;;21.21;75.53
65666;BME280;52365;47.464;18.976;2022-08-21T02:45:55;99175.63;;;21.45;75.18
65666;BME280;52365;47.464;18.976;2022-08-21T02:46:32;99174.78;;;21.22;75.16
65666;BME280;52365;47.464;18.976;2022-08-21T02:47:08;99167.44;;;21.17;76.31
65666;BME280;52365;47.464;18.976;2022-08-21T02:47:52;99169.72;;;21.33;75.51
65666;BME280;52365;47.464;18.976;2022-08-21T02:48:30;99168.06;;;21.30;75.30
65666;BME280;52365;47.464;18.976;2022-08-21T02:49:07;99168.47;;;21.42;75.12
65666;BME280;52365;47.464;18.976;2022-08-21T02:49:43;99164.13;;;21.47;75.10
65666;BME280;52365;47.464;18.976;2022-08-21T02:50:26;99172.94;;;21.68;74.56
65666;BME280;52365;47.464;18.976;2022-08-21T02:51:12;99162.69;;;21.53;74.60
65666;BME280;52365;47.464;18.976;2022-08-21T02:51:49;99165.25;;;21.51;74.84
65666;BME280;52365;47.464;18.976;2022-08-21T02:52:25;99171.28;;;21.57;75.20
65666;BME280;52365;47.464;18.976;2022-08-21T02:53:02;99166.19;;;21.69;74.19
65666;BME280;52365;47.464;18.976;2022-08-21T02:53:39;99162.34;;;21.72;74.05
65666;BME280;52365;47.464;18.976;2022-08-21T02:54:15;99171.38;;;21.36;74.61
65666;BME280;52365;47.464;18.976;2022-08-21T02:54:51;99161.53;;;21.41;75.19
65666;BME280;52365;47.464;18.976;2022-08-21T02:55:30;99159.97;;;21.61;74.64
65666;BME280;52365;47.464;18.976;2022-08-21T02:56:09;99164.34;;;21.64;74.59
65666;BME280;52365;47.464;18.976;2022-08-21T02:56:45;99154.63;;;21.48;74.89
65666;BME280;52365;47.464;18.976;2022-08-21T02:57:21;99157.00;;;21.15;75.34
65666;BME280;52365;47.464;18.976;2022-08-21T02:57:57;99155.75;;;21.16;75.90
65666;BME280;52365;47.464;18.976;2022-08-21T02:58:37;99160.09;;;21.48;75.39
65666;BME280;52365;47.464;18.976;2022-08-21T02:59:14;99157.19;;;21.53;74.63
65666;BME280;52365;47.464;18.976;2022-08-21T02:59:50;99150.62;;;21.20;75.30
65666;BME280;52365;47.464;18.976;2022-08-21T03:00:28;99161.22;;;20.80;76.82
65666;BME280;52365;47.464;18.976;2022-08-21T03:01:05;99154.63;;;20.75;77.83
65666;BME280;52365;47.464;18.976;2022-08-21T03:01:45;99151.75;;;20.81;77.20
65666;BME280;52365;47.464;18.976;2022-08-21T03:02:21;99150.59;;;20.48;78.29
65666;BME280;52365;47.464;18.976;2022-08-21T03:02:58;99145.94;;;20.35;79.79
65666;BME280;52365;47.464;18.976;2022-08-21T03:03:37;99157.03;;;20.50;79.89
65666;BME280;52365;47.464;18.976;2022-08-21T03:04:13;99155.81;;;20.17;79.89
65666;BME280;52365;47.464;18.976;2022-08-21T03:04:49;99168.84;;;20.24;80.77
65666;BME280;52365;47.464;18.976;2022-08-21T03:05:27;99167.12;;;20.63;79.89
65666;BME280;52365;47.464;18.976;2022-08-21T03:06:09;99168.19;;;20.81;78.13
65666;BME280;52365;47.464;18.976;2022-08-21T03:06:45;99162.03;;;20.96;77.29
65666;BME280;52365;47.464;18.976;2022-08-21T03:07:22;99162.16;;;21.19;76.37
65666;BME280;52365;47.464;18.976;2022-08-21T03:07:59;99165.47;;;21.25;76.09
65666;BME280;52365;47.464;18.976;2022-08-21T03:08:36;99168.75;;;21.23;75.56
65666;BME280;52365;47.464;18.976;2022-08-21T03:09:13;99170.25;;;20.96;76.51
65666;BME280;52365;47.464;18.976;2022-08-21T03:09:49;99162.59;;;20.94;77.00
65666;BME280;52365;47.464;18.976;2022-08-21T03:10:25;99164.31;;;21.12;76.71
65666;BME280;52365;47.464;18.976;2022-08-21T03:11:02;99166.44;;;20.99;76.34
65666;BME280;52365;47.464;18.976;2022-08-21T03:11:38;99161.91;;;20.73;77.56
65666;BME280;52365;47.464;18.976;2022-08-21T03:12:14;99163.22;;;20.79;78.04
65666;BME280;52365;47.464;18.976;2022-08-21T03:12:51;99154.13;;;20.84;78.09
65666;BME280;52365;47.464;18.976;2022-08-21T03:13:27;99154.72;;;20.91;77.83
65666;BME280;52365;47.464;18.976;2022-08-21T03:14:03;99160.81;;;21.04;77.21
65666;BME280;52365;47.464;18.976;2022-08-21T03:14:40;99163.37;;;21.10;77.04
65666;BME280;52365;47.464;18.976;2022-08-21T03:15:18;99158.28;;;21.14;76.77
65666;BME280;52365;47.464;18.976;2022-08-21T03:15:55;99161.38;;;21.10;76.76
65666;BME280;52365;47.464;18.976;2022-08-21T03:16:32;99162.50;;;21.15;76.37